Time;durP1;ratioP1;P1;durP2;ratioP2;P2;SDS_P1;SDS_P2;PMS_P1;PMS_P2;Temp;Humidity;BMP_temperature;BMP_pressure;BME280_temperature;BME280_humidity;BME280_pressure;Samples;Min_cycle;Max_cycle;Signal;HPM_P1;HPM_P2
2023/01/30 00:00:56;;;;;;;;;19.50;11.25;;;;;7.52;100.00;102425.81;5050475;28;45650;-69
2023/01/30 00:03:22;;;;;;;;;19.25;17.50;;;;;7.51;100.00;102434.53;5031777;28;45426;-70
2023/01/30 00:05:48;;;;;;;;;22.00;18.00;;;;;7.54;100.00;102423.25;5030230;28;45757;-69
2023/01/30 00:08:13;;;;;;;;;20.25;18.00;;;;;7.55;100.00;102425.94;5049906;28;45466;-69
2023/01/30 00:10:39;;;;;;;;;23.75;19.50;;;;;7.60;100.00;102426.16;5033574;28;45815;-70
2023/01/30 00:13:04;;;;;;;;;25.00;19.25;;;;;7.59;100.00;102409.50;5033920;28;45312;-70
2023/01/30 00:15:30;;;;;;;;;19.00;15.25;;;;;7.65;100.00;102419.41;5035102;28;57417;-69
2023/01/30 00:17:55;;;;;;;;;28.00;17.75;;;;;7.63;100.00;102410.56;5034462;28;45572;-69
2023/01/30 00:20:20;;;;;;;;;22.50;19.00;;;;;7.61;100.00;102401.66;5034990;28;52739;-70
2023/01/30 00:22:46;;;;;;;;;17.50;17.50;;;;;7.61;100.00;102386.78;5037403;28;48416;-70
2023/01/30 00:25:11;;;;;;;;;17.00;14.25;;;;;7.62;100.00;102390.34;5036571;28;54251;-69
2023/01/30 00:27:36;;;;;;;;;20.75;16.00;;;;;7.65;100.00;102389.59;5026684;28;45304;-70
2023/01/30 00:30:04;;;;;;;;;22.75;17.50;;;;;7.66;100.00;102381.75;5037092;28;45510;-69
2023/01/30 00:32:30;;;;;;;;;19.50;16.00;;;;;7.66;100.00;102387.03;5036304;28;45367;-69
2023/01/30 00:34:55;;;;;;;;;23.25;12.50;;;;;7.65;100.00;102369.44;5036918;28;45517;-69
2023/01/30 00:37:21;;;;;;;;;30.50;19.25;;;;;7.69;100.00;102381.03;5035799;28;45238;-70
2023/01/30 00:39:46;;;;;;;;;17.50;14.50;;;;;7.71;100.00;102375.00;5035231;28;52468;-69
2023/01/30 00:47:39;;;;;;;;;24.75;20.00;;;;;7.71;100.00;102363.59;5034544;28;45455;-70
2023/01/30 00:50:05;;;;;;;;;18.00;14.75;;;;;7.69;100.00;102355.63;5052251;28;54485;-70
2023/01/30 00:52:30;;;;;;;;;23.75;18.00;;;;;7.73;100.00;102361.94;5037253;28;45453;-69
2023/01/30 00:54:55;;;;;;;;;20.50;16.25;;;;;7.72;100.00;102349.59;5034201;28;45953;-71
2023/01/30 00:57:21;;;;;;;;;16.25;14.75;;;;;7.70;100.00;102343.38;5025323;28;58091;-71
2023/01/30 00:59:46;;;;;;;;;18.50;17.50;;;;;7.73;100.00;102341.81;5036614;28;57260;-70
2023/01/30 01:02:11;;;;;;;;;20.00;17.50;;;;;7.74;100.00;102338.34;5048633;28;46976;-71
2023/01/30 01:04:42;;;;;;;;;20.50;15.00;;;;;7.75;100.00;102344.50;5045975;28;60560;-71
2023/01/30 01:07:11;;;;;;;;;26.50;16.75;;;;;7.74;100.00;102337.44;5031640;28;45555;-69
2023/01/30 01:09:37;;;;;;;;;20.00;15.50;;;;;7.74;100.00;102337.44;5035126;28;45320;-71
2023/01/30 01:12:03;;;;;;;;;16.75;12.25;;;;;7.73;100.00;102331.28;5052392;28;45298;-69
2023/01/30 01:14:28;;;;;;;;;20.00;14.50;;;;;7.72;100.00;102325.94;5034200;28;46335;-69
2023/01/30 01:16:53;;;;;;;;;19.50;16.75;;;;;7.70;100.00;102315.38;5051692;28;49753;-70
2023/01/30 01:19:19;;;;;;;;;21.75;15.75;;;;;7.71;100.00;102317.16;5028565;28;52484;-69
2023/01/30 01:21:44;;;;;;;;;19.50;16.25;;;;;7.66;100.00;102313.41;5031183;28;45288;-70
2023/01/30 01:24:12;;;;;;;;;22.50;17.00;;;;;7.67;100.00;102311.69;5035669;28;46755;-69
2023/01/30 01:26:37;;;;;;;;;17.75;16.50;;;;;7.69;100.00;102312.66;5035627;28;46152;-70
2023/01/30 01:29:03;;;;;;;;;19.50;15.50;;;;;7.74;100.00;102311.16;5025720;28;45417;-69
2023/01/30 01:31:28;;;;;;;;;19.25;16.50;;;;;7.74;100.00;102314.69;5035685;28;45447;-70
2023/01/30 01:33:53;;;;;;;;;19.50;14.00;;;;;7.76;100.00;102305.13;5032510;28;54471;-69
2023/01/30 01:36:19;;;;;;;;;19.00;18.00;;;;;7.74;100.00;102316.41;5052347;28;45393;-69
2023/01/30 01:38:45;;;;;;;;;24.00;18.50;;;;;7.73;100.00;102306.72;5051709;28;45410;-70
2023/01/30 01:41:15;;;;;;;;;19.75;15.00;;;;;7.76;100.00;102306.84;5051795;28;46628;-71
2023/01/30 01:44:06;;;;;;;;;16.25;13.75;;;;;7.74;100.00;102308.53;5047033;28;46655;-70
2023/01/30 01:46:51;;;;;;;;;18.00;15.50;;;;;7.76;100.00;102298.97;5034121;28;45508;-70
2023/01/30 01:49:33;;;;;;;;;17.00;16.50;;;;;7.78;100.00;102292.06;5052098;28;45466;-70
2023/01/30 01:52:02;;;;;;;;;16.75;13.50;;;;;7.80;100.00;102287.78;5035024;28;45477;-69
2023/01/30 01:54:30;;;;;;;;;19.50;14.50;;;;;7.83;100.00;102304.59;5030016;28;47681;-71
2023/01/30 01:56:56;;;;;;;;;17.00;15.00;;;;;7.83;100.00;102306.31;5036387;28;45374;-70
2023/01/30 01:59:26;;;;;;;;;14.50;14.50;;;;;7.83;100.00;102301.06;5050723;28;51205;-68
2023/01/30 02:01:55;;;;;;;;;23.75;13.25;;;;;7.83;100.00;102294.06;5051567;28;45252;-70
2023/01/30 02:05:00;;;;;;;;;15.75;13.25;;;;;7.86;100.00;102286.31;5049753;28;46421;-70
2023/01/30 02:07:06;;;;;;;;;13.50;10.75;;;;;7.89;100.00;102285.56;5030135;28;45408;-69
2023/01/30 02:09:31;;;;;;;;;20.00;15.50;;;;;7.88;100.00;102289.00;5049506;28;45206;-70
2023/01/30 02:11:59;;;;;;;;;11.25;11.25;;;;;7.89;100.00;102301.34;5035028;28;48443;-69
2023/01/30 02:14:25;;;;;;;;;19.00;14.75;;;;;7.87;100.00;102296.00;5032760;28;46040;-70
2023/01/30 02:16:50;;;;;;;;;15.75;13.50;;;;;7.87;100.00;102285.47;5051467;28;45431;-71
2023/01/30 02:19:30;;;;;;;;;19.00;15.00;;;;;7.86;100.00;102288.94;5030031;28;52204;-70
2023/01/30 02:22:15;;;;;;;;;18.00;15.00;;;;;7.84;100.00;102276.56;5028931;28;45198;-69
2023/01/30 02:24:49;;;;;;;;;23.50;13.75;;;;;7.81;100.00;102293.09;5033484;28;46654;-69
2023/01/30 02:27:47;;;;;;;;;20.00;15.25;;;;;7.77;100.00;102292.88;5032986;28;45439;-68
2023/01/30 02:30:34;;;;;;;;;17.50;15.00;;;;;7.71;100.00;102285.59;5032723;28;46895;-70
2023/01/30 02:33:18;;;;;;;;;19.00;11.75;;;;;7.68;100.00;102293.38;5027350;28;45721;-69
2023/01/30 02:36:14;;;;;;;;;17.25;14.75;;;;;7.66;100.00;102292.38;5026682;28;46179;-70
2023/01/30 02:39:09;;;;;;;;;21.00;15.00;;;;;7.64;100.00;102290.53;5037507;28;45471;-71
2023/01/30 02:42:11;;;;;;;;;20.75;16.75;;;;;7.61;100.00;102288.63;5038788;28;45280;-69
2023/01/30 02:44:50;;;;;;;;;24.50;12.50;;;;;7.60;100.00;102292.09;5033053;28;45277;-69
2023/01/30 02:47:24;;;;;;;;;19.75;15.25;;;;;7.59;100.00;102292.94;5035401;28;46950;-70
2023/01/30 02:50:23;;;;;;;;;20.25;17.00;;;;;7.62;100.00;102298.34;5030365;28;45477;-70
2023/01/30 02:52:49;;;;;;;;;15.00;14.00;;;;;7.65;100.00;102298.47;5026352;28;45416;-70
2023/01/30 02:55:20;;;;;;;;;19.75;14.00;;;;;7.69;100.00;102295.16;5039166;28;52090;-67
2023/01/30 02:57:45;;;;;;;;;19.00;14.75;;;;;7.69;100.00;102287.28;5037534;28;45876;-70
2023/01/30 03:00:12;;;;;;;;;15.75;12.50;;;;;7.72;100.00;102282.13;5054598;28;45310;-69
2023/01/30 03:03:06;;;;;;;;;17.75;14.00;;;;;7.76;100.00;102298.97;5053864;28;45374;-70
2023/01/30 03:05:49;;;;;;;;;15.75;13.25;;;;;7.79;100.00;102292.13;5037606;28;45413;-71
2023/01/30 03:08:23;;;;;;;;;12.50;10.25;;;;;7.81;100.00;102292.19;5029133;28;46817;-69
2023/01/30 03:10:59;;;;;;;;;18.25;15.50;;;;;7.79;100.00;102289.50;5053296;28;45490;-70
2023/01/30 03:13:25;;;;;;;;;17.50;12.50;;;;;7.83;100.00;102296.72;5031717;28;45461;-70
2023/01/30 03:15:58;;;;;;;;;17.75;14.50;;;;;7.80;100.00;102290.41;5039184;28;45357;-71
2023/01/30 03:18:24;;;;;;;;;17.25;12.25;;;;;7.82;100.00;102278.22;5033202;28;46531;-69
2023/01/30 03:20:50;;;;;;;;;19.75;13.25;;;;;7.83;100.00;102287.94;5038155;28;51536;-71
2023/01/30 03:23:15;;;;;;;;;13.75;13.00;;;;;7.82;100.00;102287.00;5054036;28;45525;-67
2023/01/30 03:25:42;;;;;;;;;18.25;12.00;;;;;7.80;100.00;102285.13;5054909;28;45476;-69
2023/01/30 03:28:09;;;;;;;;;13.50;11.75;;;;;7.78;100.00;102276.28;5031873;28;46687;-69
2023/01/30 03:30:34;;;;;;;;;18.75;15.50;;;;;7.76;100.00;102278.84;5037517;28;45486;-69
2023/01/30 03:33:00;;;;;;;;;11.25;11.25;;;;;7.73;100.00;102283.97;5036826;28;57411;-71
2023/01/30 03:35:25;;;;;;;;;15.00;14.75;;;;;7.70;100.00;102277.66;5037762;28;45208;-71
2023/01/30 03:37:50;;;;;;;;;15.25;13.75;;;;;7.69;100.00;102282.03;5017898;28;53780;-70
2023/01/30 03:40:16;;;;;;;;;21.50;15.00;;;;;7.70;100.00;102275.94;5038639;28;45189;-69
2023/01/30 03:42:42;;;;;;;;;17.50;14.50;;;;;7.71;100.00;102272.47;5036858;28;45289;-69
2023/01/30 03:45:09;;;;;;;;;14.50;11.75;;;;;7.70;100.00;102278.56;5036823;28;52921;-69
2023/01/30 03:47:34;;;;;;;;;21.50;16.00;;;;;7.73;100.00;102277.81;5037117;28;46783;-69
2023/01/30 03:49:59;;;;;;;;;14.50;14.50;;;;;7.73;100.00;102269.94;5037143;28;57930;-70
2023/01/30 03:52:25;;;;;;;;;16.75;16.25;;;;;7.73;100.00;102264.66;5037817;28;56436;-68
2023/01/30 03:54:50;;;;;;;;;17.75;12.25;;;;;7.67;100.00;102267.00;5037179;28;45275;-69
2023/01/30 03:57:16;;;;;;;;;13.75;12.00;;;;;7.72;100.00;102270.72;5036879;28;57874;-70
2023/01/30 03:59:41;;;;;;;;;14.25;11.25;;;;;7.70;100.00;102270.66;5036119;28;54677;-70
2023/01/30 04:02:07;;;;;;;;;16.00;15.75;;;;;7.73;100.00;102277.81;5052731;28;45951;-69
2023/01/30 04:04:33;;;;;;;;;13.75;10.25;;;;;7.73;100.00;102268.19;5037589;28;45227;-71
2023/01/30 04:06:58;;;;;;;;;14.50;11.25;;;;;7.74;100.00;102254.22;5037357;28;45715;-70
2023/01/30 04:09:23;;;;;;;;;16.25;15.25;;;;;7.77;100.00;102256.97;5037300;28;50032;-69
2023/01/30 04:11:49;;;;;;;;;13.75;10.50;;;;;7.77;100.00;102264.84;5033451;28;55147;-69
2023/01/30 04:14:14;;;;;;;;;21.25;16.00;;;;;7.80;100.00;102259.75;5034842;28;54802;-70
2023/01/30 04:16:39;;;;;;;;;17.00;12.25;;;;;7.84;100.00;102261.69;5029685;28;46507;-70
2023/01/30 04:19:05;;;;;;;;;18.75;16.75;;;;;7.83;100.00;102251.09;5047901;28;58858;-69
2023/01/30 04:21:30;;;;;;;;;15.25;12.50;;;;;7.87;100.00;102243.41;5027591;28;45800;-69
2023/01/30 04:23:55;;;;;;;;;15.75;14.00;;;;;7.88;100.00;102239.03;5037431;28;51419;-70
2023/01/30 04:26:21;;;;;;;;;20.25;16.25;;;;;7.92;100.00;102237.44;5024391;28;45674;-69
2023/01/30 04:28:46;;;;;;;;;15.00;13.25;;;;;7.88;100.00;102237.34;5026378;28;57706;-69
2023/01/30 04:31:11;;;;;;;;;24.25;15.00;;;;;7.86;100.00;102227.56;5037087;28;45258;-70
2023/01/30 04:33:38;;;;;;;;;13.00;13.00;;;;;7.83;100.00;102233.59;5038128;28;45451;-69
2023/01/30 04:36:05;;;;;;;;;16.75;13.75;;;;;7.81;100.00;102227.34;5035893;28;45926;-70
2023/01/30 04:38:32;;;;;;;;;14.50;11.00;;;;;7.85;100.00;102234.56;5037339;28;45278;-71
2023/01/30 04:40:58;;;;;;;;;17.00;14.00;;;;;7.84;100.00;102235.38;5034062;28;45397;-69
2023/01/30 04:43:25;;;;;;;;;16.00;11.00;;;;;7.85;100.00;102225.78;5036246;28;45417;-70
2023/01/30 04:45:51;;;;;;;;;15.25;12.00;;;;;7.88;100.00;102221.56;5029557;28;46502;-71
2023/01/30 04:48:17;;;;;;;;;12.75;11.50;;;;;7.92;100.00;102238.34;5048773;28;45640;-70
2023/01/30 04:50:44;;;;;;;;;15.25;12.25;;;;;7.94;100.00;102228.81;5053116;28;45470;-69
2023/01/30 04:53:09;;;;;;;;;14.25;13.75;;;;;7.91;100.00;102227.78;5036058;28;45662;-71
2023/01/30 04:55:35;;;;;;;;;17.50;12.50;;;;;7.96;100.00;102226.25;5036036;28;59045;-70
2023/01/30 04:58:00;;;;;;;;;16.50;16.00;;;;;7.99;100.00;102231.63;5035887;28;45450;-70
2023/01/30 05:00:26;;;;;;;;;16.50;14.50;;;;;8.01;100.00;102243.13;5036217;28;45447;-69
2023/01/30 05:02:52;;;;;;;;;16.50;11.00;;;;;8.03;100.00;102238.81;5036204;28;52579;-70
2023/01/30 05:05:17;;;;;;;;;16.00;13.25;;;;;8.06;100.00;102244.22;5036785;28;46559;-70
2023/01/30 05:07:42;;;;;;;;;17.00;12.75;;;;;8.05;100.00;102242.44;5052350;28;45440;-69
2023/01/30 05:10:08;;;;;;;;;12.25;10.25;;;;;8.07;100.00;102235.50;5032028;28;45852;-71
2023/01/30 05:12:34;;;;;;;;;16.75;11.50;;;;;8.10;100.00;102243.53;5036549;28;45804;-71
2023/01/30 05:15:00;;;;;;;;;17.50;11.50;;;;;8.12;100.00;102234.88;5027061;28;46841;-71
2023/01/30 05:17:26;;;;;;;;;17.75;13.50;;;;;8.14;100.00;102232.28;5052141;28;45499;-71
2023/01/30 05:19:51;;;;;;;;;17.00;15.50;;;;;8.15;100.00;102236.75;5035606;28;45344;-70
2023/01/30 05:22:16;;;;;;;;;10.25;10.25;;;;;8.14;100.00;102227.94;5037003;28;45210;-70
2023/01/30 05:24:41;;;;;;;;;17.25;11.00;;;;;8.12;100.00;102226.97;5034718;28;57988;-70
2023/01/30 05:27:07;;;;;;;;;17.00;12.25;;;;;8.08;100.00;102225.03;5034498;28;58565;-69
2023/01/30 05:29:32;;;;;;;;;21.25;11.00;;;;;8.08;100.00;102225.03;5033764;28;54846;-69
2023/01/30 05:31:58;;;;;;;;;12.50;10.75;;;;;8.09;100.00;102220.66;5034929;28;51795;-70
2023/01/30 05:34:23;;;;;;;;;13.25;11.00;;;;;8.09;100.00;102215.41;5051600;28;54230;-70
2023/01/30 05:36:48;;;;;;;;;14.75;11.00;;;;;8.12;100.00;102233.97;5034153;28;57529;-70
2023/01/30 05:39:14;;;;;;;;;18.50;14.25;;;;;8.10;100.00;102227.75;5036138;28;51123;-70
2023/01/30 05:41:39;;;;;;;;;13.00;13.00;;;;;8.09;100.00;102229.47;5035635;28;45437;-67
2023/01/30 05:44:05;;;;;;;;;12.00;11.75;;;;;8.13;100.00;102223.50;5035558;28;61124;-70
2023/01/30 05:46:30;;;;;;;;;12.50;12.50;;;;;8.13;100.00;102218.25;5024491;28;45517;-70
2023/01/30 05:48:55;;;;;;;;;16.50;10.00;;;;;8.15;100.00;102210.44;5036642;28;45377;-70
2023/01/30 05:51:23;;;;;;;;;16.00;14.00;;;;;8.13;100.00;102204.19;5028637;28;53707;-69
2023/01/30 05:53:49;;;;;;;;;17.50;16.25;;;;;8.12;100.00;102202.41;5035911;28;45275;-69
2023/01/30 05:56:14;;;;;;;;;7.00;7.00;;;;;8.07;100.00;102209.19;5051217;28;45526;-70
2023/01/30 05:58:41;;;;;;;;;10.75;10.00;;;;;8.04;100.00;102202.09;5036619;28;45368;-70
2023/01/30 06:01:08;;;;;;;;;6.50;6.00;;;;;8.02;100.00;102198.47;5036053;28;45609;-69
2023/01/30 06:03:34;;;;;;;;;14.00;11.50;;;;;8.02;100.00;102197.56;5048268;28;46323;-70
2023/01/30 06:06:04;;;;;;;;;13.25;10.25;;;;;8.03;100.00;102191.47;5044601;28;45465;-69
2023/01/30 06:08:31;;;;;;;;;14.00;11.50;;;;;8.03;100.00;102200.25;5047594;28;45472;-71
2023/01/30 06:11:05;;;;;;;;;13.75;13.75;;;;;8.04;100.00;102195.91;5031031;28;45486;-69
2023/01/30 06:13:30;;;;;;;;;10.50;8.50;;;;;8.01;100.00;102191.41;5030008;28;46942;-70
2023/01/30 06:15:56;;;;;;;;;15.50;10.75;;;;;8.06;100.00;102202.13;5034839;28;56390;-70
2023/01/30 06:18:21;;;;;;;;;13.25;12.75;;;;;8.06;100.00;102199.50;5025017;28;45463;-70
2023/01/30 06:20:51;;;;;;;;;11.00;10.50;;;;;8.10;100.00;102206.72;5034747;28;45546;-69
2023/01/30 06:23:17;;;;;;;;;10.00;10.00;;;;;8.12;100.00;102197.13;5034613;28;46402;-71
2023/01/30 06:25:47;;;;;;;;;11.50;11.50;;;;;8.12;100.00;102205.03;5050939;28;45641;-69
2023/01/30 06:28:13;;;;;;;;;12.75;11.25;;;;;8.10;100.00;102204.97;5034046;28;45482;-70
2023/01/30 06:30:39;;;;;;;;;11.00;11.00;;;;;8.11;100.00;102209.41;5035113;28;45667;-69
2023/01/30 06:33:04;;;;;;;;;8.00;8.00;;;;;8.15;100.00;102226.22;5050676;28;46509;-69
2023/01/30 06:35:29;;;;;;;;;16.25;14.50;;;;;8.16;100.00;102221.84;5032867;28;49342;-70
2023/01/30 06:37:55;;;;;;;;;15.50;15.50;;;;;8.16;100.00;102235.00;5031552;28;45417;-69
2023/01/30 06:40:20;;;;;;;;;21.00;12.25;;;;;8.17;100.00;102239.44;5035124;28;45397;-69
2023/01/30 06:42:46;;;;;;;;;15.00;11.50;;;;;8.16;100.00;102233.28;5034990;28;58096;-69
2023/01/30 06:45:13;;;;;;;;;11.50;11.25;;;;;8.18;100.00;102230.69;5050466;28;45983;-68
2023/01/30 06:47:53;;;;;;;;;16.75;12.25;;;;;8.19;100.00;102229.88;5050560;28;45414;-69
2023/01/30 06:50:20;;;;;;;;;11.25;7.00;;;;;8.20;100.00;102232.56;5026599;28;45751;-71
2023/01/30 06:52:47;;;;;;;;;12.00;12.00;;;;;8.18;100.00;102228.97;5032982;28;46575;-72
2023/01/30 06:55:15;;;;;;;;;10.00;10.00;;;;;8.18;100.00;102230.69;5030224;28;45590;-71
2023/01/30 06:57:41;;;;;;;;;12.75;8.00;;;;;8.16;100.00;102240.28;5030012;28;45511;-72
2023/01/30 07:00:10;;;;;;;;;10.25;9.75;;;;;8.17;100.00;102255.22;5031894;28;46490;-69
2023/01/30 07:02:35;;;;;;;;;15.25;11.25;;;;;8.15;100.00;102239.38;5029493;28;45635;-70
2023/01/30 07:05:01;;;;;;;;;12.75;12.75;;;;;8.16;100.00;102250.78;5024902;28;45502;-69
2023/01/30 07:07:27;;;;;;;;;19.25;14.75;;;;;8.18;100.00;102251.75;5029490;28;45599;-71
2023/01/30 07:09:53;;;;;;;;;15.50;10.50;;;;;8.21;100.00;102254.53;5024674;28;45602;-72
2023/01/30 07:12:19;;;;;;;;;12.25;7.50;;;;;8.23;100.00;102258.13;5159209;22;46957;-69
2023/01/30 07:14:44;;;;;;;;;11.75;11.25;;;;;8.26;100.00;102255.63;5029653;28;45565;-69
2023/01/30 07:17:10;;;;;;;;;11.00;9.50;;;;;8.27;100.00;102257.41;5022941;28;46000;-69
2023/01/30 07:19:35;;;;;;;;;15.00;10.50;;;;;8.32;100.00;102275.19;5028688;28;45443;-69
2023/01/30 07:22:00;;;;;;;;;15.75;12.00;;;;;8.31;100.00;102268.16;5034564;28;52677;-70
2023/01/30 07:24:26;;;;;;;;;11.75;11.25;;;;;8.33;100.00;102284.00;5027276;28;55724;-69
2023/01/30 07:26:51;;;;;;;;;13.00;11.50;;;;;8.33;100.00;102289.25;5029059;28;46531;-70
2023/01/30 07:29:16;;;;;;;;;16.25;10.50;;;;;8.35;100.00;102280.59;5030708;28;54402;-69
2023/01/30 07:31:42;;;;;;;;;16.00;12.00;;;;;8.37;100.00;102283.34;5030375;28;45477;-69
2023/01/30 07:34:07;;;;;;;;;12.25;11.00;;;;;8.37;100.00;102278.06;5028921;28;46142;-68
2023/01/30 07:36:33;;;;;;;;;13.75;12.25;;;;;8.36;100.00;102282.44;5034025;28;54697;-68
2023/01/30 07:39:00;;;;;;;;;18.00;13.25;;;;;8.35;100.00;102285.84;5034448;28;45695;-66
2023/01/30 07:41:26;;;;;;;;;11.25;7.00;;;;;8.35;100.00;102280.59;5032484;28;46161;-68
2023/01/30 07:43:51;;;;;;;;;14.00;11.50;;;;;8.33;100.00;102270.84;5033052;28;45946;-68
2023/01/30 07:46:17;;;;;;;;;16.00;11.75;;;;;8.31;100.00;102281.31;5034394;28;45811;-70
2023/01/30 07:48:45;;;;;;;;;11.75;11.75;;;;;8.35;100.00;102279.69;5034732;28;47005;-69
2023/01/30 07:51:11;;;;;;;;;17.50;11.50;;;;;8.36;100.00;102278.88;5032795;28;46596;-68
2023/01/30 07:53:36;;;;;;;;;16.00;10.75;;;;;8.35;100.00;102271.78;5032723;28;46378;-69
2023/01/30 07:56:07;;;;;;;;;11.75;11.50;;;;;8.34;100.00;102272.63;5033224;28;55538;-69
2023/01/30 07:58:32;;;;;;;;;8.00;6.25;;;;;8.31;100.00;102268.16;5032955;28;45419;-70
2023/01/30 08:00:57;;;;;;;;;11.75;9.50;;;;;8.27;100.00;102275.84;5032332;28;58648;-68
2023/01/30 08:03:23;;;;;;;;;10.75;10.75;;;;;8.26;100.00;102277.56;5031196;28;45450;-69
2023/01/30 08:05:48;;;;;;;;;18.75;14.00;;;;;8.27;100.00;102276.72;5033050;28;46827;-65
2023/01/30 08:08:14;;;;;;;;;12.50;10.25;;;;;8.27;100.00;102274.09;5033819;28;46362;-68
2023/01/30 08:10:39;;;;;;;;;11.75;9.75;;;;;8.25;100.00;102274.84;5034393;28;45817;-68
2023/01/30 08:13:05;;;;;;;;;14.50;10.00;;;;;8.30;100.00;102284.75;5030641;28;52022;-67
2023/01/30 08:15:32;;;;;;;;;11.00;11.00;;;;;8.28;100.00;102280.25;5039649;28;45406;-67
2023/01/30 08:17:58;;;;;;;;;12.00;10.25;;;;;8.26;100.00;102280.22;5034720;28;45372;-68
2023/01/30 08:20:25;;;;;;;;;12.00;11.00;;;;;8.31;100.00;102288.28;5036800;28;46044;-67
2023/01/30 08:22:50;;;;;;;;;15.75;10.00;;;;;8.31;100.00;102277.75;5034405;28;45411;-68
2023/01/30 08:25:15;;;;;;;;;20.25;15.00;;;;;8.34;100.00;102294.56;5031919;28;45397;-72
2023/01/30 08:27:41;;;;;;;;;13.50;13.50;;;;;8.37;100.00;102297.38;5032651;28;45510;-68
2023/01/30 08:30:07;;;;;;;;;15.75;12.25;;;;;8.36;100.00;102294.66;5029787;28;58581;-67
2023/01/30 08:32:33;;;;;;;;;11.75;10.50;;;;;8.37;100.00;102296.50;5031715;28;45256;-66
2023/01/30 08:34:58;;;;;;;;;17.75;14.25;;;;;8.40;100.00;102296.59;5033433;28;45380;-67
2023/01/30 08:37:23;;;;;;;;;12.00;10.25;;;;;8.42;100.00;102294.06;5030889;28;55423;-67
2023/01/30 08:39:49;;;;;;;;;18.25;14.75;;;;;8.47;100.00;102295.13;5032025;28;57176;-66
2023/01/30 08:42:14;;;;;;;;;14.50;13.00;;;;;8.50;100.00;102301.44;5032667;28;45502;-66
2023/01/30 08:44:40;;;;;;;;;12.00;12.00;;;;;8.50;100.00;102303.19;5033263;28;45439;-67
2023/01/30 08:47:05;;;;;;;;;17.75;12.00;;;;;8.52;100.00;102307.69;5032616;28;52804;-68
2023/01/30 08:49:30;;;;;;;;;11.75;10.75;;;;;8.53;100.00;102322.66;5031304;28;51491;-68
2023/01/30 08:51:56;;;;;;;;;16.50;12.50;;;;;8.54;100.00;102306.00;5029799;28;59559;-66
2023/01/30 08:54:21;;;;;;;;;12.00;11.25;;;;;8.53;100.00;102303.31;5033338;28;46132;-67
2023/01/30 08:56:46;;;;;;;;;12.50;12.50;;;;;8.55;100.00;102312.16;5032932;28;54686;-67
2023/01/30 08:59:12;;;;;;;;;16.00;11.75;;;;;8.52;100.00;102312.97;5034808;28;45927;-67
2023/01/30 09:01:37;;;;;;;;;10.00;10.00;;;;;8.54;100.00;102318.28;5030922;28;45394;-65
2023/01/30 09:04:03;;;;;;;;;22.50;14.25;;;;;8.56;100.00;102317.50;5034346;28;45493;-66
2023/01/30 09:06:28;;;;;;;;;11.25;8.00;;;;;8.59;100.00;102330.81;5033448;28;45462;-68
2023/01/30 09:08:53;;;;;;;;;10.00;9.75;;;;;8.59;100.00;102328.16;5024083;28;58909;-67
2023/01/30 09:11:19;;;;;;;;;12.00;12.00;;;;;8.64;100.00;102331.00;5031814;28;56532;-67
2023/01/30 09:13:44;;;;;;;;;12.50;12.50;;;;;8.68;100.00;102329.38;5030461;28;45471;-67
2023/01/30 09:16:10;;;;;;;;;11.25;8.75;;;;;8.68;100.00;102330.28;5031080;28;45682;-67
2023/01/30 09:18:40;;;;;;;;;12.25;10.50;;;;;8.70;100.00;102327.72;5031961;28;45501;-67
2023/01/30 09:21:06;;;;;;;;;11.25;9.25;;;;;8.72;100.00;102312.88;5029474;28;45529;-67
2023/01/30 09:23:31;;;;;;;;;12.25;10.00;;;;;8.73;100.00;102320.84;5030351;28;45572;-67
2023/01/30 09:25:57;;;;;;;;;11.75;11.00;;;;;8.74;100.00;102327.03;5032429;28;52281;-66
2023/01/30 09:28:22;;;;;;;;;14.25;11.25;;;;;8.69;100.00;102321.56;5030615;28;46605;-66
2023/01/30 09:30:47;;;;;;;;;11.75;9.25;;;;;8.66;100.00;102324.94;5030798;28;57990;-66
2023/01/30 09:33:15;;;;;;;;;11.50;11.00;;;;;8.69;100.00;102340.00;5031147;28;53461;-66
2023/01/30 09:35:40;;;;;;;;;14.75;11.00;;;;;8.73;100.00;102341.00;5024492;28;45617;-66
2023/01/30 09:38:06;;;;;;;;;12.75;8.00;;;;;8.73;100.00;102341.91;5028256;28;46135;-66
2023/01/30 09:40:32;;;;;;;;;11.75;7.75;;;;;8.77;100.00;102330.69;5030731;28;56972;-66
2023/01/30 09:43:00;;;;;;;;;17.50;12.00;;;;;8.80;100.00;102322.03;5031124;28;45507;-68
2023/01/30 09:45:31;;;;;;;;;11.75;8.00;;;;;8.81;100.00;102327.34;5030725;28;45522;-66
2023/01/30 09:47:59;;;;;;;;;15.00;11.50;;;;;8.85;100.00;102323.13;5032751;28;48417;-68
2023/01/30 09:51:01;;;;;;;;;11.00;11.00;;;;;8.88;100.00;102326.75;5029171;28;45531;-67
2023/01/30 09:53:51;;;;;;;;;10.25;9.00;;;;;8.85;100.00;102318.75;5029894;28;45620;-67
2023/01/30 09:56:16;;;;;;;;;9.50;9.50;;;;;8.91;100.00;102341.81;5026967;28;45490;-67
2023/01/30 09:58:51;;;;;;;;;15.00;12.75;;;;;8.89;100.00;102331.22;5031434;28;59312;-68
2023/01/30 10:01:29;;;;;;;;;11.50;10.00;;;;;8.91;100.00;102342.69;5031581;28;45542;-68
2023/01/30 10:04:10;;;;;;;;;12.00;10.75;;;;;8.91;100.00;102344.44;5031316;28;45459;-69
2023/01/30 10:06:43;;;;;;;;;10.50;9.00;;;;;8.91;100.00;102339.16;5028397;28;45400;-70
2023/01/30 10:09:25;;;;;;;;;11.75;11.50;;;;;8.89;100.00;102339.13;5029261;28;48897;-67
2023/01/30 10:12:27;;;;;;;;;11.25;8.00;;;;;8.89;100.00;102351.34;5030420;28;45326;-68
2023/01/30 10:15:19;;;;;;;;;12.50;11.00;;;;;8.94;100.00;102360.34;5012386;28;45507;-69
2023/01/30 10:17:54;;;;;;;;;14.75;11.00;;;;;9.02;100.00;102351.06;5031177;28;46066;-68
2023/01/30 10:20:31;;;;;;;;;11.50;11.50;;;;;9.11;100.00;102363.72;5013966;28;48494;-68
2023/01/30 10:23:03;;;;;;;;;18.75;13.00;;;;;9.13;100.00;102354.13;5029162;28;45541;-69
2023/01/30 10:25:39;;;;;;;;;12.75;11.25;;;;;9.23;100.00;102355.41;5030949;28;45528;-69
2023/01/30 10:28:19;;;;;;;;;12.25;11.00;;;;;9.33;100.00;102363.75;5031065;28;45616;-68
2023/01/30 10:30:50;;;;;;;;;13.50;12.75;;;;;9.38;100.00;102340.22;5029445;28;45560;-68
2023/01/30 10:33:29;;;;;;;;;14.75;13.00;;;;;9.42;100.00;102347.38;5028871;28;45510;-69
2023/01/30 10:36:03;;;;;;;;;13.75;12.50;;;;;9.42;100.00;102345.66;5032873;28;45478;-69
2023/01/30 10:38:41;;;;;;;;;14.75;10.50;;;;;9.42;100.00;102348.28;5033044;28;45509;-70
2023/01/30 10:41:12;;;;;;;;;14.75;8.75;;;;;9.44;100.00;102330.81;5032761;28;45613;-68
2023/01/30 10:43:44;;;;;;;;;12.50;11.25;;;;;9.51;100.00;102320.50;5033436;28;45542;-67
2023/01/30 10:46:28;;;;;;;;;10.00;8.00;;;;;9.58;100.00;102323.44;5033515;28;45465;-68
2023/01/30 10:49:24;;;;;;;;;10.25;8.25;;;;;9.71;100.00;102327.47;5031421;28;45545;-68
2023/01/30 10:51:49;;;;;;;;;12.00;10.25;;;;;9.78;100.00;102329.47;5032539;28;46131;-69
2023/01/30 10:54:39;;;;;;;;;7.75;7.75;;;;;9.92;100.00;102328.28;5034407;28;45249;-69
2023/01/30 10:57:24;;;;;;;;;10.00;10.00;;;;;10.05;100.00;102324.34;5029381;28;45259;-68
2023/01/30 11:00:09;;;;;;;;;7.75;7.00;;;;;10.08;100.00;102328.84;5008011;28;45981;-67
2023/01/30 11:02:56;;;;;;;;;12.00;8.75;;;;;10.08;100.00;102332.38;5029336;28;46879;-68
2023/01/30 11:05:24;;;;;;;;;14.50;11.00;;;;;10.10;100.00;102332.44;5036976;28;45772;-68
2023/01/30 11:07:50;;;;;;;;;9.25;8.50;;;;;10.11;100.00;102327.19;5036482;28;45527;-68
2023/01/30 11:10:21;;;;;;;;;9.00;7.25;;;;;10.08;100.00;102318.28;5036442;28;45626;-69
2023/01/30 11:13:06;;;;;;;;;8.50;6.50;;;;;10.11;100.00;102329.84;5017803;28;47307;-70
2023/01/30 11:15:43;;;;;;;;;9.50;9.50;;;;;10.12;100.00;102329.03;5035970;28;45485;-69
2023/01/30 11:18:09;;;;;;;;;7.75;7.75;;;;;10.12;100.00;102322.81;5035958;28;45556;-70
2023/01/30 11:20:43;;;;;;;;;7.75;7.75;;;;;10.15;100.00;102325.56;5035188;28;53737;-69
2023/01/30 11:23:33;;;;;;;;;8.00;8.00;;;;;10.19;100.00;102324.84;5035633;28;45662;-70